createdAt,value
2023-02-22T00:00:46.520Z,78.99
2023-02-22T00:03:55.681Z,79.11
2023-02-22T00:06:28.359Z,79.19
2023-02-22T00:08:58.185Z,79.11
2023-02-22T00:11:27.835Z,79.23
2023-02-22T00:13:59.780Z,79.24
2023-02-22T00:16:32.859Z,79.27
2023-02-22T00:19:02.737Z,79.22
2023-02-22T00:21:30.885Z,79.09
2023-02-22T00:24:24.388Z,78.80
2023-02-22T00:26:57.944Z,78.46
2023-02-22T00:29:56.581Z,78.44
2023-02-22T00:33:05.966Z,78.49
2023-02-22T00:35:35.125Z,78.36
2023-02-22T00:38:03.906Z,78.45
2023-02-22T00:40:35.209Z,78.41
2023-02-22T00:43:11.509Z,78.40
2023-02-22T00:46:23.221Z,78.44
2023-02-22T00:52:25.228Z,78.38
2023-02-22T00:54:58.003Z,78.54
2023-02-22T00:57:34.901Z,78.41
2023-02-22T01:06:47.128Z,78.40
2023-02-22T01:16:14.148Z,78.39
2023-02-22T01:19:33.662Z,78.40
2023-02-22T01:22:01.890Z,78.46
2023-02-22T01:24:33.095Z,78.65
2023-02-22T01:27:06.800Z,78.57
2023-02-22T01:29:49.714Z,78.66
2023-02-22T01:32:23.117Z,78.87
2023-02-22T01:34:53.748Z,78.93
2023-02-22T01:37:21.133Z,78.88
2023-02-22T01:39:55.197Z,78.92
2023-02-22T01:42:26.096Z,79.04
2023-02-22T01:45:54.171Z,78.77
2023-02-22T01:48:27.836Z,78.67
2023-02-22T01:51:36.552Z,78.67
2023-02-22T01:54:40.364Z,78.71
2023-02-22T01:57:33.783Z,78.68
2023-02-22T02:00:12.347Z,78.60
2023-02-22T02:03:00.878Z,78.23
2023-02-22T02:05:32.050Z,78.47
2023-02-22T02:08:08.397Z,78.39
2023-02-22T02:10:35.951Z,78.43
2023-02-22T02:13:04.005Z,78.61
2023-02-22T02:15:37.247Z,78.40
2023-02-22T02:18:10.954Z,78.21
2023-02-22T02:21:06.766Z,78.30
2023-02-22T02:24:10.257Z,78.47
2023-02-22T02:27:10.476Z,78.51
2023-02-22T02:30:17.020Z,78.58
2023-02-22T02:33:12.157Z,78.43
2023-02-22T02:36:19.012Z,78.33
2023-02-22T02:39:23.860Z,78.38
2023-02-22T02:41:57.683Z,78.57
2023-02-22T02:54:43.394Z,78.02
2023-02-22T02:57:16.747Z,77.89
2023-02-22T02:59:48.196Z,77.49
2023-02-22T03:03:06.366Z,77.20
2023-02-22T03:06:45.067Z,77.50
2023-02-22T03:09:48.474Z,77.27
2023-02-22T03:12:47.929Z,77.18
2023-02-22T03:32:44.669Z,77.31
2023-02-22T03:41:10.696Z,77.57
2023-02-22T03:43:46.813Z,77.90
2023-02-22T03:46:22.220Z,77.97
2023-02-22T03:49:17.872Z,77.84
2023-02-22T03:51:46.092Z,77.74
2023-02-22T03:55:44.904Z,77.61
2023-02-22T03:58:16.129Z,77.83
2023-02-22T04:00:46.187Z,77.76
2023-02-22T04:04:26.846Z,78.06
2023-02-22T04:06:56.699Z,78.13
2023-02-22T04:09:24.286Z,78.33
2023-02-22T04:11:52.876Z,78.38
2023-02-22T04:14:23.716Z,78.44
2023-02-22T04:16:53.899Z,78.30
2023-02-22T04:19:21.741Z,77.95
2023-02-22T04:21:53.111Z,78.18
2023-02-22T04:24:26.403Z,78.06
2023-02-22T04:27:00.467Z,77.90
2023-02-22T04:29:38.615Z,77.78
2023-02-22T04:32:09.658Z,77.35
2023-02-22T04:34:46.036Z,77.07
2023-02-22T04:37:15.245Z,76.85
2023-02-22T04:39:42.770Z,76.61
2023-02-22T04:42:11.841Z,76.57
2023-02-22T04:44:41.031Z,76.16
2023-02-22T04:47:11.563Z,76.27
2023-02-22T04:49:41.116Z,76.01
2023-02-22T04:52:13.482Z,76.08
2023-02-22T04:54:40.731Z,75.68
2023-02-22T05:00:11.056Z,75.65
2023-02-22T05:02:40.507Z,75.13
2023-02-22T05:05:10.151Z,75.18
2023-02-22T05:07:49.533Z,75.21
2023-02-22T05:10:22.770Z,75.18
2023-02-22T05:12:53.263Z,74.82
2023-02-22T05:18:30.216Z,74.92
2023-02-22T05:20:58.743Z,74.81
2023-02-22T05:23:25.869Z,74.61
2023-02-22T05:25:53.709Z,74.59
2023-02-22T05:29:24.281Z,74.95
2023-02-22T05:35:12.768Z,75.15
2023-02-22T05:44:58.412Z,74.73
